createdAt,value
2022-08-18T00:00:00.339Z,2.2
2022-08-18T00:05:00.302Z,0.0
2022-08-18T00:10:00.414Z,0.0
2022-08-18T00:15:00.310Z,0.0
2022-08-18T00:20:00.416Z,1.4
2022-08-18T00:25:00.270Z,0.0
2022-08-18T00:30:00.417Z,0.0
2022-08-18T00:35:00.417Z,0.0
2022-08-18T00:40:00.577Z,0.0
2022-08-18T00:45:00.333Z,0.0
2022-08-18T00:50:00.331Z,0.0
2022-08-18T00:55:00.302Z,0.0
2022-08-18T01:00:00.376Z,0.0
2022-08-18T01:05:00.288Z,0.0
2022-08-18T01:10:00.356Z,0.0
2022-08-18T01:15:00.325Z,0.0
2022-08-18T01:20:00.365Z,0.0
2022-08-18T01:25:00.295Z,0.0
2022-08-18T01:30:00.342Z,0.0
2022-08-18T01:35:00.287Z,0.0
2022-08-18T01:41:00.439Z,0.0
2022-08-18T01:45:04.416Z,0.0
2022-08-18T01:50:00.324Z,0.0
2022-08-18T01:55:00.300Z,0.0
2022-08-18T02:00:00.348Z,0.0
2022-08-18T02:05:00.297Z,0.0
2022-08-18T02:10:02.453Z,0.0
2022-08-18T02:15:00.574Z,0.0
2022-08-18T02:20:00.618Z,0.0
2022-08-18T02:25:00.333Z,0.0
2022-08-18T02:30:00.505Z,0.0
2022-08-18T02:35:00.295Z,0.0
2022-08-18T02:40:00.647Z,0.0
2022-08-18T02:45:00.306Z,0.0
2022-08-18T02:50:00.349Z,0.0
2022-08-18T02:55:00.324Z,0.0
2022-08-18T03:00:01.100Z,0.0
2022-08-18T03:05:00.319Z,0.0
2022-08-18T03:10:32.067Z,0.0
2022-08-18T03:15:00.297Z,0.0
2022-08-18T03:20:02.905Z,0.0
2022-08-18T03:25:00.311Z,0.0
2022-08-18T03:30:00.387Z,0.0
2022-08-18T03:35:00.300Z,0.0
2022-08-18T03:40:00.650Z,0.0
2022-08-18T03:45:18.164Z,0.0
2022-08-18T03:50:00.344Z,0.0
2022-08-18T03:55:03.056Z,0.0
2022-08-18T04:00:00.369Z,0.0
2022-08-18T04:05:00.296Z,0.0
2022-08-18T04:10:00.373Z,0.0
2022-08-18T04:15:00.293Z,0.0
2022-08-18T04:20:00.396Z,0.0
2022-08-18T04:25:00.302Z,0.0
2022-08-18T04:30:00.378Z,0.0
2022-08-18T04:35:03.380Z,0.0
2022-08-18T04:40:00.647Z,0.0
2022-08-18T04:45:00.313Z,0.0
2022-08-18T04:50:02.505Z,0.0
2022-08-18T04:55:00.326Z,0.0
2022-08-18T05:00:00.359Z,2.9
2022-08-18T05:05:00.317Z,4.0
2022-08-18T05:10:00.370Z,2.2
2022-08-18T05:15:00.334Z,5.0
2022-08-18T05:20:02.270Z,4.7
2022-08-18T05:25:00.856Z,1.4
2022-08-18T05:30:00.347Z,4.0
2022-08-18T05:35:00.259Z,0.0
2022-08-18T05:40:00.776Z,2.5
2022-08-18T05:45:00.329Z,3.6
2022-08-18T05:50:00.342Z,3.2
2022-08-18T05:55:00.311Z,4.3
2022-08-18T06:00:00.377Z,5.8
2022-08-18T06:05:00.270Z,3.2
2022-08-18T06:10:00.317Z,0.0
2022-08-18T06:15:06.724Z,0.0
2022-08-18T06:20:00.358Z,1.4
2022-08-18T06:25:00.282Z,2.9
2022-08-18T06:30:00.349Z,2.5
2022-08-18T06:35:00.288Z,2.2
2022-08-18T06:40:00.655Z,5.4
2022-08-18T06:45:00.288Z,6.1
2022-08-18T06:50:00.339Z,5.0
2022-08-18T06:55:00.291Z,1.8
2022-08-18T07:00:00.374Z,2.5
2022-08-18T07:05:00.331Z,1.4
2022-08-18T07:10:01.479Z,0.0
2022-08-18T07:15:00.333Z,1.8
2022-08-18T07:20:00.369Z,0.0
2022-08-18T07:25:05.876Z,0.0
2022-08-18T07:30:00.338Z,0.0
2022-08-18T07:35:00.338Z,1.4
2022-08-18T07:40:00.641Z,1.8
2022-08-18T07:45:00.314Z,2.9
2022-08-18T07:50:31.725Z,1.8
2022-08-18T07:55:00.326Z,2.2
2022-08-18T08:00:00.403Z,2.2
2022-08-18T08:05:00.303Z,2.5
2022-08-18T08:10:00.344Z,0.0
2022-08-18T08:15:00.314Z,0.0
2022-08-18T08:20:02.796Z,1.4
2022-08-18T08:25:00.285Z,0.0
2022-08-18T08:30:00.349Z,0.0
2022-08-18T08:35:00.304Z,0.0
2022-08-18T08:40:00.805Z,0.0
2022-08-18T08:45:00.648Z,5.0
2022-08-18T08:50:01.348Z,0.0
2022-08-18T08:55:00.324Z,0.0
2022-08-18T09:00:00.382Z,1.4
2022-08-18T09:05:10.188Z,1.4
2022-08-18T09:10:00.329Z,1.1
2022-08-18T09:15:00.332Z,7.2
2022-08-18T09:20:02.502Z,4.3
2022-08-18T09:25:00.317Z,3.6
2022-08-18T09:30:00.365Z,4.7
2022-08-18T09:35:00.285Z,0.0
2022-08-18T09:40:12.835Z,1.8
2022-08-18T09:45:00.346Z,2.5
2022-08-18T09:50:04.049Z,3.6
2022-08-18T09:55:00.297Z,6.1
2022-08-18T10:00:00.429Z,6.1
2022-08-18T10:05:00.408Z,4.0
2022-08-18T10:10:01.024Z,5.4
2022-08-18T10:15:00.382Z,9.0
2022-08-18T10:20:00.987Z,6.8
2022-08-18T10:25:22.456Z,5.8
2022-08-18T10:30:00.319Z,5.0
2022-08-18T10:35:00.323Z,1.4
2022-08-18T10:40:01.978Z,4.7
2022-08-18T10:45:00.415Z,4.7
2022-08-18T10:50:00.550Z,4.0
2022-08-18T10:55:00.315Z,4.7
2022-08-18T11:00:00.405Z,6.5
2022-08-18T11:05:00.775Z,6.8
2022-08-18T11:10:29.641Z,4.3
2022-08-18T11:15:21.354Z,6.8
2022-08-18T11:20:00.357Z,0.0
2022-08-18T11:25:00.613Z,7.6
2022-08-18T11:30:00.449Z,1.4
2022-08-18T11:35:00.327Z,2.5
2022-08-18T11:40:00.712Z,4.7
2022-08-18T11:45:00.323Z,4.0
2022-08-18T11:50:04.692Z,0.0
2022-08-18T11:55:00.363Z,4.3
2022-08-18T12:00:01.409Z,0.0
2022-08-18T12:05:10.675Z,0.0
2022-08-18T12:10:21.043Z,5.4
2022-08-18T12:15:17.713Z,3.2
2022-08-18T12:20:01.366Z,0.0
2022-08-18T12:25:00.885Z,0.0
2022-08-18T12:30:00.394Z,4.0
2022-08-18T12:35:09.895Z,1.8
2022-08-18T12:40:00.733Z,4.0
2022-08-18T12:45:01.475Z,7.9
2022-08-18T12:50:10.609Z,9.4
2022-08-18T12:55:00.403Z,11.2
2022-08-18T13:00:00.388Z,8.6
2022-08-18T13:05:01.663Z,15.5
2022-08-18T13:10:00.371Z,5.0
2022-08-18T13:15:00.355Z,4.7
2022-08-18T13:20:00.992Z,8.3
2022-08-18T13:25:00.481Z,13.0
2022-08-18T13:30:00.377Z,5.8
2022-08-18T13:35:13.450Z,6.1
2022-08-18T13:40:04.102Z,9.7
2022-08-18T13:55:00.545Z,5.8
2022-08-18T14:00:00.370Z,10.1
2022-08-18T14:05:00.361Z,6.5
2022-08-18T14:10:13.314Z,7.2
2022-08-18T14:15:01.387Z,14.4
2022-08-18T14:20:02.736Z,9.4
2022-08-18T14:25:00.771Z,11.9
2022-08-18T14:30:00.475Z,7.9
2022-08-18T14:35:32.160Z,5.8
2022-08-18T14:40:00.614Z,9.4
2022-08-18T14:45:26.839Z,3.2
2022-08-18T14:50:00.571Z,6.1
2022-08-18T14:55:00.306Z,8.3
2022-08-18T15:00:00.523Z,6.1
2022-08-18T15:05:00.545Z,19.4
2022-08-18T15:10:17.037Z,16.9
2022-08-18T15:15:02.575Z,11.9
2022-08-18T15:20:01.994Z,14.0
2022-08-18T15:25:00.324Z,5.0
2022-08-18T15:30:02.246Z,7.9
2022-08-18T15:35:12.014Z,7.6
2022-08-18T15:40:00.676Z,11.2
2022-08-18T15:45:13.801Z,10.4
2022-08-18T15:50:25.691Z,5.8
2022-08-18T15:55:02.785Z,4.0
2022-08-18T16:00:00.337Z,4.0
2022-08-18T16:05:14.304Z,4.3
2022-08-18T16:10:00.282Z,4.0
2022-08-18T16:15:00.558Z,3.6
2022-08-18T16:20:00.335Z,0.0
2022-08-18T16:25:00.269Z,2.2
2022-08-18T16:30:00.341Z,2.2
2022-08-18T16:35:00.280Z,2.2
2022-08-18T16:40:00.551Z,6.1
2022-08-18T16:45:00.319Z,6.1
2022-08-18T16:50:00.698Z,21.6
2022-08-18T16:55:00.327Z,17.3
2022-08-18T17:00:00.325Z,14.8
2022-08-18T17:05:00.307Z,13.0
2022-08-18T17:10:00.345Z,8.3
2022-08-18T17:15:00.307Z,15.5
2022-08-18T17:20:00.348Z,10.8
2022-08-18T17:25:00.346Z,13.7
2022-08-18T17:30:00.296Z,7.9
2022-08-18T17:35:00.314Z,12.6
2022-08-18T17:40:00.644Z,9.4
2022-08-18T17:45:00.655Z,5.0
2022-08-18T17:50:27.643Z,11.5
2022-08-18T17:55:00.330Z,11.2
2022-08-18T18:00:00.370Z,16.9
2022-08-18T18:05:00.311Z,15.5
2022-08-18T18:10:00.314Z,2.2
2022-08-18T18:15:00.302Z,5.8
2022-08-18T18:20:00.303Z,5.8
2022-08-18T18:25:00.307Z,10.8
2022-08-18T18:30:00.382Z,3.2
2022-08-18T18:35:00.299Z,4.7
2022-08-18T18:40:00.600Z,0.0
2022-08-18T18:45:00.283Z,2.2
2022-08-18T18:50:00.446Z,6.5
2022-08-18T18:55:00.308Z,2.2
2022-08-18T19:00:00.573Z,4.0
2022-08-18T19:05:00.335Z,10.1
2022-08-18T19:10:00.305Z,3.6
2022-08-18T19:15:00.880Z,2.5
2022-08-18T19:20:00.338Z,3.6
2022-08-18T19:25:00.282Z,5.8
2022-08-18T19:30:00.314Z,5.8
2022-08-18T19:35:05.379Z,4.0
2022-08-18T19:40:00.630Z,2.2
2022-08-18T19:45:17.672Z,3.6
2022-08-18T19:50:00.309Z,1.8
2022-08-18T19:55:00.342Z,2.2
2022-08-18T20:00:00.352Z,3.2
2022-08-18T20:05:00.396Z,2.5
2022-08-18T20:10:00.317Z,4.0
2022-08-18T20:15:00.321Z,6.1
2022-08-18T20:20:00.333Z,5.8
2022-08-18T20:25:00.286Z,9.7
2022-08-18T20:30:00.381Z,14.8
2022-08-18T20:35:00.269Z,3.2
2022-08-18T20:40:06.911Z,1.4
2022-08-18T20:45:00.330Z,2.9
2022-08-18T20:50:00.356Z,4.7
2022-08-18T20:55:12.099Z,3.6
2022-08-18T21:00:00.312Z,0.0
2022-08-18T21:05:00.369Z,0.0
2022-08-18T21:10:13.537Z,0.0
2022-08-18T21:15:00.305Z,0.0
2022-08-18T21:20:02.366Z,2.5
2022-08-18T21:25:00.305Z,5.0
2022-08-18T21:30:00.346Z,6.1
2022-08-18T21:35:00.355Z,0.0
2022-08-18T21:40:00.574Z,0.0
2022-08-18T21:45:01.472Z,0.0
2022-08-18T21:50:01.161Z,0.0
2022-08-18T21:55:00.273Z,0.0
2022-08-18T22:00:00.417Z,0.0
2022-08-18T22:05:00.268Z,4.0
2022-08-18T22:10:05.695Z,0.0
2022-08-18T22:15:00.309Z,0.0
2022-08-18T22:20:00.291Z,7.9
2022-08-18T22:25:00.412Z,3.6
2022-08-18T22:30:00.419Z,1.4
2022-08-18T22:35:00.402Z,3.2
2022-08-18T22:40:00.612Z,5.0
2022-08-18T22:45:05.627Z,2.5
2022-08-18T22:50:01.817Z,3.2
2022-08-18T22:55:06.978Z,4.7
2022-08-18T23:00:00.402Z,4.7
2022-08-18T23:05:00.305Z,6.5
2022-08-18T23:10:00.306Z,9.4
2022-08-18T23:15:00.257Z,11.2
2022-08-18T23:20:00.603Z,0.0
2022-08-18T23:25:09.526Z,0.0
2022-08-18T23:30:00.330Z,0.0
2022-08-18T23:35:00.268Z,2.9
2022-08-18T23:40:00.655Z,5.4
2022-08-18T23:45:00.323Z,3.2
2022-08-18T23:50:00.347Z,2.9
2022-08-18T23:55:00.295Z,4.0
